KTOI/TOI METAR and TAF weather

Enter ICAO airport designator
Station Type Date Time Source
KTOI METAR 2019/11/18 12:06 UTC NOAA

KTOI 181206Z AUTO 00000KT 3SM BR CLR 02/02 A2991 RMK AO2 T00220022


Station Type Date Time Source
KTOI Decoded METAR 2019/11/18 12:06 UTC NOAA

TROY MUNICIPAL AIRPORT, AL, United States (KTOI) 31-52N 086-01W 118M
Nov 18, 2019 - 07:06 AM EST / 2019.11.18 1206 UTC
Wind: Calm:0
Visibility: 3 mile(s):0
Sky conditions: clear
Weather: mist
Temperature: 36.0 F (2.2 C)
Dew Point: 36.0 F (2.2 C)
Relative Humidity: 100%
Pressure (altimeter): 29.91 in. Hg (1012 hPa)
ob: KTOI 181206Z AUTO 00000KT 3SM BR CLR 02/02 A2991 RMK AO2 T00220022
cycle: 12

Station Type Date Time Source
KTOI TAF 2019/11/18 12:27 UTC NOAA

TAF KTOI 181124Z 1812/1912 00000KT 3SM BR BKN002
TEMPO 1812/1813 1SM BR BKN002
FM181430 28003KT P6SM BKN250
FM181900 29007KT P6SM BKN250
FM190000 28004KT P6SM OVC250

Example: see airport list